Ardenvoir, Washington
Current Conditions -  °F | °C
As of 7:55 AM on Thursday 29 Jan 2015 (Local Time) from KEAT Reporting Station
Overcast Overcast  
Wind Chill: 29°   Ceiling: 700
Heat Index: 33°   Visibility: 10mi
Dew Point: 29°   Wind: 5mph
Humidity: 85%   Direction: 290°WNW
Pressure: 30.48"   Gusts: NA
Location:  47.74°N, 120.37°W
Report Text: KEAT 291555Z AUTO 29004KT 10SM OVC007 01/M02 A3048 RMK AO2 SLP335 T00061017
Loading
Personal Weather Stations






























Interactive Weather Map New forecast layout! Learn more

10-Day Weather Forecast

Advertisements
Track Severe Weather on mobile